Time;durP1;ratioP1;P1;durP2;ratioP2;P2;SDS_P1;SDS_P2;PMS_P1;PMS_P2;Temp;Humidity;BMP_temperature;BMP_pressure;BME280_temperature;BME280_humidity;BME280_pressure;Samples;Min_cycle;Max_cycle;Signal;HPM_P1;HPM_P2
2023/05/24 00:00:30;;;;;;;;;;;;;;;20.28;65.98;98530.66;2089111;28;19924;-49
2023/05/24 00:01:32;;;;;;;;;;;;;;;20.26;66.21;98532.75;2084736;28;20409;-47
2023/05/24 00:02:32;;;;;;;;;;;;;;;20.26;65.97;98532.75;2085856;28;19920;-50
2023/05/24 00:03:38;;;;;;;;;;;;;;;20.26;66.27;98535.44;2083242;28;19925;-48
2023/05/24 00:04:40;;;;;;;;;;;;;;;20.27;66.16;98537.06;2081513;28;20619;-48
2023/05/24 00:05:42;;;;;;;;;;;;;;;20.27;66.33;98538.94;2086122;28;20496;-50
2023/05/24 00:06:43;;;;;;;;;;;;;;;20.25;66.34;98541.88;2086782;28;20351;-48
2023/05/24 00:07:45;;;;;;;;;;;;;;;20.26;66.27;98540.81;2085930;28;19924;-47
2023/05/24 00:08:45;;;;;;;;;;;;;;;20.26;66.04;98535.44;2087268;28;19920;-49
2023/05/24 00:09:47;;;;;;;;;;;;;;;20.27;65.99;98536.25;2086217;28;20011;-50
2023/05/24 00:10:47;;;;;;;;;;;;;;;20.28;66.11;98537.91;2088275;28;19946;-45
2023/05/24 00:11:49;;;;;;;;;;;;;;;20.25;66.02;98536.50;2084953;28;20665;-49
2023/05/24 00:12:49;;;;;;;;;;;;;;;20.25;66.15;98541.88;2091689;28;19924;-48
2023/05/24 00:13:51;;;;;;;;;;;;;;;20.25;66.27;98539.19;2085382;28;19929;-48
2023/05/24 00:14:51;;;;;;;;;;;;;;;20.25;66.08;98539.19;2084052;28;19928;-48
2023/05/24 00:15:53;;;;;;;;;;;;;;;20.28;66.20;98544.13;2086672;28;19970;-47
2023/05/24 00:16:53;;;;;;;;;;;;;;;20.25;66.26;98539.19;2081783;28;19924;-50
2023/05/24 00:17:54;;;;;;;;;;;;;;;20.25;65.97;98538.34;2082685;28;20424;-47
2023/05/24 00:18:57;;;;;;;;;;;;;;;20.25;66.03;98538.34;2083576;28;20017;-47
2023/05/24 00:19:59;;;;;;;;;;;;;;;20.25;66.13;98543.72;2085076;28;20536;-46
2023/05/24 00:21:00;;;;;;;;;;;;;;;20.25;66.16;98532.94;2082713;28;19977;-48
2023/05/24 00:22:01;;;;;;;;;;;;;;;20.23;65.92;98538.56;2085025;28;20658;-48
2023/05/24 00:23:02;;;;;;;;;;;;;;;20.25;65.92;98533.81;2087664;28;19931;-50
2023/05/24 00:24:03;;;;;;;;;;;;;;;20.25;65.89;98538.34;2083547;28;20035;-46
2023/05/24 00:25:04;;;;;;;;;;;;;;;20.26;65.90;98534.63;2083347;28;19977;-49
2023/05/24 00:26:06;;;;;;;;;;;;;;;20.26;65.89;98540.00;2084330;28;20009;-50
2023/05/24 00:27:06;;;;;;;;;;;;;;;20.24;66.31;98534.00;2086036;28;19977;-50
2023/05/24 00:28:08;;;;;;;;;;;;;;;20.24;66.27;98531.31;2082739;28;20850;-48
2023/05/24 00:29:08;;;;;;;;;;;;;;;20.23;66.24;98533.19;2084471;28;19977;-47
2023/05/24 00:30:10;;;;;;;;;;;;;;;20.24;66.00;98529.44;2086355;28;21918;-47
2023/05/24 00:31:10;;;;;;;;;;;;;;;20.25;66.25;98536.50;2085200;28;19933;-46
2023/05/24 00:32:12;;;;;;;;;;;;;;;20.23;66.18;98538.56;2083712;28;19932;-50
2023/05/24 00:33:12;;;;;;;;;;;;;;;20.25;66.17;98535.63;2085542;28;19925;-46
2023/05/24 00:34:13;;;;;;;;;;;;;;;20.23;66.07;98533.19;2084652;28;19924;-47
2023/05/24 00:35:15;;;;;;;;;;;;;;;20.24;66.33;98534.00;2084672;28;19924;-50
2023/05/24 00:36:17;;;;;;;;;;;;;;;20.25;65.96;98528.41;2085151;28;20378;-50
2023/05/24 00:37:17;;;;;;;;;;;;;;;20.25;66.27;98535.63;2087395;28;20848;-48
2023/05/24 00:38:19;;;;;;;;;;;;;;;20.24;66.20;98521.34;2084453;28;19991;-50
2023/05/24 00:39:19;;;;;;;;;;;;;;;20.24;66.09;98529.44;2082843;28;20598;-47
2023/05/24 00:40:21;;;;;;;;;;;;;;;20.25;66.18;98524.88;2081470;28;19920;-51
2023/05/24 00:41:21;;;;;;;;;;;;;;;20.26;66.04;98529.22;2085067;28;20930;-48
2023/05/24 00:42:22;;;;;;;;;;;;;;;20.24;66.27;98529.44;2084747;28;19936;-46
2023/05/24 00:43:23;;;;;;;;;;;;;;;20.24;65.95;98525.91;2085535;28;20338;-45
2023/05/24 00:44:24;;;;;;;;;;;;;;;20.24;65.94;98529.44;2086363;28;19929;-46
2023/05/24 00:45:25;;;;;;;;;;;;;;;20.24;65.95;98526.75;2085146;28;20029;-46
2023/05/24 00:46:27;;;;;;;;;;;;;;;20.25;66.17;98531.09;2083106;28;23973;-51
2023/05/24 00:47:28;;;;;;;;;;;;;;;20.24;66.22;98534.00;2081060;28;19928;-48
2023/05/24 00:48:29;;;;;;;;;;;;;;;20.23;65.90;98533.19;2084155;28;20514;-50
2023/05/24 00:49:30;;;;;;;;;;;;;;;20.23;66.19;98533.19;2083405;28;19977;-49
2023/05/24 00:50:33;;;;;;;;;;;;;;;20.25;66.25;98535.63;2087034;28;21206;-51
2023/05/24 00:51:35;;;;;;;;;;;;;;;20.26;65.91;98537.31;2080651;28;19931;-50
2023/05/24 00:52:36;;;;;;;;;;;;;;;20.24;65.83;98529.44;2087657;28;19921;-48
2023/05/24 00:53:37;;;;;;;;;;;;;;;20.24;65.99;98528.63;2083182;28;19932;-49
2023/05/24 00:54:39;;;;;;;;;;;;;;;20.22;65.86;98526.13;2082899;28;19924;-48
2023/05/24 00:55:40;;;;;;;;;;;;;;;20.21;66.23;98524.50;2087802;28;20417;-46
2023/05/24 00:56:42;;;;;;;;;;;;;;;20.22;65.91;98520.75;2087960;28;19966;-51
2023/05/24 00:57:43;;;;;;;;;;;;;;;20.22;66.11;98519.91;2088802;28;20547;-52
2023/05/24 00:58:44;;;;;;;;;;;;;;;20.21;66.08;98521.78;2085652;28;19924;-49
2023/05/24 00:59:45;;;;;;;;;;;;;;;20.23;66.17;98519.72;2086567;28;19928;-51
2023/05/24 01:00:48;;;;;;;;;;;;;;;20.23;65.79;98522.41;2085505;28;20378;-49
2023/05/24 01:01:49;;;;;;;;;;;;;;;20.23;66.11;98516.19;2082183;28;19928;-51
2023/05/24 01:02:50;;;;;;;;;;;;;;;20.23;66.13;98514.34;2084672;28;19924;-48
2023/05/24 01:03:52;;;;;;;;;;;;;;;20.23;65.84;98522.41;2080758;28;19920;-47
2023/05/24 01:04:55;;;;;;;;;;;;;;;20.23;65.94;98516.19;2082121;28;19924;-49
2023/05/24 01:05:57;;;;;;;;;;;;;;;20.21;65.93;98521.78;2081853;28;19927;-51
2023/05/24 01:07:06;;;;;;;;;;;;;;;20.21;66.21;98513.72;2088863;28;19979;-50
2023/05/24 01:08:14;;;;;;;;;;;;;;;20.21;66.13;98519.09;2084645;28;19924;-46
2023/05/24 01:09:24;;;;;;;;;;;;;;;20.20;66.04;98511.25;2082240;28;19936;-48
2023/05/24 01:10:34;;;;;;;;;;;;;;;20.21;66.08;98521.78;2080172;28;19935;-47
2023/05/24 01:11:41;;;;;;;;;;;;;;;20.20;66.06;98517.47;2080617;28;19946;-46
2023/05/24 01:12:51;;;;;;;;;;;;;;;20.20;66.06;98520.16;2080878;28;19921;-48
2023/05/24 01:13:56;;;;;;;;;;;;;;;20.20;66.08;98512.06;2087546;28;19924;-47
2023/05/24 01:15:03;;;;;;;;;;;;;;;20.19;65.93;98513.09;2086263;28;20515;-49
2023/05/24 01:16:06;;;;;;;;;;;;;;;20.20;66.10;98509.38;2085428;28;19931;-52
2023/05/24 01:17:13;;;;;;;;;;;;;;;20.19;65.98;98510.41;2085351;28;19930;-50
2023/05/24 01:18:16;;;;;;;;;;;;;;;20.20;66.17;98505.88;2071880;28;19928;-48
2023/05/24 01:19:33;;;;;;;;;;;;;;;20.20;66.20;98512.06;2077739;28;19928;-50
2023/05/24 01:20:37;;;;;;;;;;;;;;;20.19;66.01;98505.03;2067566;28;19925;-44
2023/05/24 01:21:49;;;;;;;;;;;;;;;20.20;65.97;98509.38;2083007;28;19924;-48
2023/05/24 01:23:02;;;;;;;;;;;;;;;20.21;66.05;98513.72;2081074;28;21200;-48
2023/05/24 01:24:13;;;;;;;;;;;;;;;20.19;66.17;98499.63;2083474;28;21599;-47
2023/05/24 01:25:19;;;;;;;;;;;;;;;20.20;66.05;98511.25;2086827;28;20019;-50
2023/05/24 01:26:27;;;;;;;;;;;;;;;20.20;65.86;98512.06;2087884;28;19924;-48
2023/05/24 01:27:30;;;;;;;;;;;;;;;20.19;65.90;98498.81;2086467;28;20019;-49
2023/05/24 01:28:32;;;;;;;;;;;;;;;20.20;65.87;98503.19;2085587;28;19966;-49
2023/05/24 01:29:34;;;;;;;;;;;;;;;20.21;65.76;98508.31;2081560;28;19936;-48
2023/05/24 01:30:35;;;;;;;;;;;;;;;20.20;65.83;98501.31;2084479;28;19991;-48
2023/05/24 01:31:37;;;;;;;;;;;;;;;20.21;65.97;98502.94;2087970;28;19921;-49
2023/05/24 01:32:37;;;;;;;;;;;;;;;20.20;66.05;98501.31;2085487;28;19929;-49
2023/05/24 01:33:41;;;;;;;;;;;;;;;20.19;66.07;98502.31;2089970;28;19928;-47
2023/05/24 01:34:41;;;;;;;;;;;;;;;20.21;65.88;98500.25;2088503;28;19997;-48
2023/05/24 01:35:43;;;;;;;;;;;;;;;20.21;65.95;98497.56;2089139;28;19990;-47
2023/05/24 01:36:43;;;;;;;;;;;;;;;20.21;66.07;98500.25;2078439;28;19925;-50
2023/05/24 01:37:45;;;;;;;;;;;;;;;20.22;66.09;98499.19;2088834;28;19986;-51
2023/05/24 01:38:45;;;;;;;;;;;;;;;20.22;66.11;98498.38;2082664;28;19988;-48
2023/05/24 01:39:47;;;;;;;;;;;;;;;20.22;65.73;98495.69;2089393;28;20895;-47
2023/05/24 01:40:51;;;;;;;;;;;;;;;20.22;65.96;98493.81;2089187;28;20294;-44
2023/05/24 01:41:59;;;;;;;;;;;;;;;20.23;65.87;98494.66;2088532;28;20084;-49
2023/05/24 01:43:04;;;;;;;;;;;;;;;20.23;66.00;98500.88;2088619;28;19929;-50
2023/05/24 01:44:10;;;;;;;;;;;;;;;20.23;66.02;98502.75;2086400;28;19935;-49
2023/05/24 01:45:13;;;;;;;;;;;;;;;20.21;66.10;98502.94;2081067;28;20010;-51
2023/05/24 01:46:22;;;;;;;;;;;;;;;20.23;66.09;98494.66;2078520;28;20542;-48
2023/05/24 01:47:27;;;;;;;;;;;;;;;20.22;65.67;98504.56;2080375;28;19977;-50
2023/05/24 01:48:34;;;;;;;;;;;;;;;20.23;65.88;98503.56;2082382;28;19951;-51
2023/05/24 01:49:38;;;;;;;;;;;;;;;20.23;65.96;98506.25;2084251;28;20007;-48
2023/05/24 01:50:43;;;;;;;;;;;;;;;20.23;66.08;98508.13;2079023;28;19977;-46
2023/05/24 01:51:57;;;;;;;;;;;;;;;20.23;65.78;98510.81;2079335;28;19924;-48
2023/05/24 01:53:03;;;;;;;;;;;;;;;20.20;65.78;98509.38;2082885;28;19928;-51
2023/05/24 01:54:05;;;;;;;;;;;;;;;20.23;66.10;98508.94;2089687;28;19924;-50
2023/05/24 01:55:07;;;;;;;;;;;;;;;20.23;65.83;98506.25;2086905;28;19928;-48
2023/05/24 01:56:10;;;;;;;;;;;;;;;20.25;65.80;98509.56;2086319;28;19931;-50
2023/05/24 01:57:11;;;;;;;;;;;;;;;20.25;65.73;98508.72;2086841;28;19995;-50
2023/05/24 01:58:14;;;;;;;;;;;;;;;20.23;66.03;98514.34;2085681;28;19925;-49
2023/05/24 01:59:16;;;;;;;;;;;;;;;20.22;65.76;98515.34;2085350;28;19927;-44
2023/05/24 02:00:17;;;;;;;;;;;;;;;20.21;65.86;98511.03;2086164;28;19950;-48
2023/05/24 02:01:19;;;;;;;;;;;;;;;20.23;65.86;98511.63;2089157;28;19972;-49
2023/05/24 02:02:20;;;;;;;;;;;;;;;20.23;66.10;98505.44;2083193;28;19967;-46
2023/05/24 02:03:21;;;;;;;;;;;;;;;20.23;65.70;98511.63;2086385;28;19924;-49
2023/05/24 02:04:23;;;;;;;;;;;;;;;20.23;65.78;98506.25;2087550;28;19928;-50
2023/05/24 02:05:24;;;;;;;;;;;;;;;20.24;65.97;98515.16;2091122;28;20334;-48
2023/05/24 02:06:25;;;;;;;;;;;;;;;20.22;65.98;98507.28;2087908;28;19972;-50
2023/05/24 02:07:26;;;;;;;;;;;;;;;20.22;66.01;98514.53;2089363;28;19924;-50
2023/05/24 02:08:27;;;;;;;;;;;;;;;20.20;65.90;98506.69;2089015;28;19928;-47
2023/05/24 02:09:28;;;;;;;;;;;;;;;20.20;66.08;98512.06;2086215;28;23834;-48
2023/05/24 02:10:28;;;;;;;;;;;;;;;20.20;66.04;98514.75;2084166;28;19932;-48
2023/05/24 02:11:30;;;;;;;;;;;;;;;20.21;66.02;98504.81;2084572;28;20618;-52
2023/05/24 02:12:30;;;;;;;;;;;;;;;20.21;66.02;98508.31;2086666;28;20023;-50
2023/05/24 02:13:33;;;;;;;;;;;;;;;20.21;65.94;98516.41;2083926;28;19936;-52
2023/05/24 02:14:36;;;;;;;;;;;;;;;20.21;65.93;98513.72;2087603;28;20283;-45
2023/05/24 02:15:40;;;;;;;;;;;;;;;20.22;65.94;98518.03;2084269;28;19921;-47
2023/05/24 02:16:45;;;;;;;;;;;;;;;20.20;66.07;98517.47;2083305;28;19993;-49
2023/05/24 02:17:47;;;;;;;;;;;;;;;20.21;65.71;98507.50;2081469;28;20969;-51
2023/05/24 02:18:47;;;;;;;;;;;;;;;20.22;65.67;98519.91;2085227;28;19928;-49
2023/05/24 02:19:48;;;;;;;;;;;;;;;20.22;65.89;98520.75;2086860;28;19925;-48
2023/05/24 02:20:49;;;;;;;;;;;;;;;20.19;65.87;98517.66;2083182;28;19924;-52
2023/05/24 02:21:51;;;;;;;;;;;;;;;20.20;65.82;98517.47;2082701;28;19928;-47
2023/05/24 02:22:52;;;;;;;;;;;;;;;20.21;66.10;98518.28;2089100;28;19929;-48
2023/05/24 02:23:53;;;;;;;;;;;;;;;20.20;65.90;98524.72;2087035;28;19955;-50
2023/05/24 02:24:54;;;;;;;;;;;;;;;20.20;66.06;98524.72;2088102;28;20490;-51
2023/05/24 02:25:55;;;;;;;;;;;;;;;20.19;65.72;98520.34;2088272;28;20356;-47
2023/05/24 02:26:56;;;;;;;;;;;;;;;20.18;65.83;98518.72;2085092;28;20577;-50
2023/05/24 02:27:57;;;;;;;;;;;;;;;20.20;65.94;98519.34;2086568;28;19928;-52
2023/05/24 02:28:59;;;;;;;;;;;;;;;20.20;65.94;98522.03;2081697;28;20849;-49
2023/05/24 02:30:00;;;;;;;;;;;;;;;20.20;65.85;98525.53;2084979;28;19932;-50
2023/05/24 02:31:01;;;;;;;;;;;;;;;20.17;65.75;98520.59;2085542;28;20035;-52
2023/05/24 02:32:02;;;;;;;;;;;;;;;20.17;66.08;98525.13;2089496;28;19927;-50
2023/05/24 02:33:04;;;;;;;;;;;;;;;20.18;65.92;98524.09;2087524;28;19985;-50
2023/05/24 02:34:06;;;;;;;;;;;;;;;20.18;65.95;98527.63;2085245;28;19986;-49
2023/05/24 02:35:07;;;;;;;;;;;;;;;20.17;65.80;98528.66;2084075;28;19936;-49
2023/05/24 02:36:08;;;;;;;;;;;;;;;20.18;65.89;98524.09;2087665;28;19963;-50
2023/05/24 02:37:13;;;;;;;;;;;;;;;20.18;65.93;98519.53;2082660;28;19969;-51
2023/05/24 02:38:14;;;;;;;;;;;;;;;20.17;66.18;98520.59;2082652;28;19924;-51
2023/05/24 02:39:15;;;;;;;;;;;;;;;20.18;65.96;98519.53;2088975;28;19931;-50
2023/05/24 02:40:16;;;;;;;;;;;;;;;20.17;66.16;98517.91;2084738;28;19928;-49
2023/05/24 02:41:17;;;;;;;;;;;;;;;20.17;66.09;98528.66;2081245;28;20012;-52
2023/05/24 02:42:18;;;;;;;;;;;;;;;20.16;66.26;98520.78;2087846;28;19928;-49
2023/05/24 02:43:19;;;;;;;;;;;;;;;20.15;65.93;98522.66;2084889;28;19981;-49
2023/05/24 02:44:22;;;;;;;;;;;;;;;20.16;66.17;98526.19;2085085;28;19982;-51
2023/05/24 02:45:22;;;;;;;;;;;;;;;20.15;66.28;98524.53;2081865;28;21691;-50
2023/05/24 02:46:23;;;;;;;;;;;;;;;20.16;66.17;98524.31;2087935;28;19978;-50
2023/05/24 02:47:25;;;;;;;;;;;;;;;20.16;66.15;98523.47;2085537;28;19924;-48
2023/05/24 02:48:27;;;;;;;;;;;;;;;20.16;65.83;98524.31;2082783;28;19925;-49
2023/05/24 02:49:27;;;;;;;;;;;;;;;20.15;65.96;98522.66;2086640;28;19989;-51
2023/05/24 02:50:28;;;;;;;;;;;;;;;20.15;65.93;98525.34;2087010;28;20487;-48
2023/05/24 02:51:29;;;;;;;;;;;;;;;20.15;66.04;98519.97;2089187;28;19957;-49
2023/05/24 02:52:31;;;;;;;;;;;;;;;20.15;66.11;98519.16;2089000;28;20084;-48
2023/05/24 02:53:32;;;;;;;;;;;;;;;20.15;66.23;98521.84;2088532;28;19964;-49
2023/05/24 02:54:33;;;;;;;;;;;;;;;20.16;65.90;98516.22;2088948;28;19974;-50
2023/05/24 02:55:34;;;;;;;;;;;;;;;20.16;65.78;98518.91;2086889;28;19928;-49
2023/05/24 02:56:36;;;;;;;;;;;;;;;20.17;65.76;98517.03;2088215;28;19954;-49
2023/05/24 02:57:37;;;;;;;;;;;;;;;20.15;65.84;98509.19;2088385;28;20015;-47
2023/05/24 02:58:39;;;;;;;;;;;;;;;20.14;65.77;98515.59;2082807;28;20368;-51
2023/05/24 02:59:41;;;;;;;;;;;;;;;20.15;65.74;98514.59;2086249;28;19932;-51
2023/05/24 03:00:42;;;;;;;;;;;;;;;20.15;65.82;98509.19;2082567;28;19953;-49
2023/05/24 03:01:43;;;;;;;;;;;;;;;20.15;65.78;98501.13;2080868;28;19924;-46
2023/05/24 03:02:46;;;;;;;;;;;;;;;20.16;65.73;98508.16;2083002;28;19924;-47
2023/05/24 03:03:47;;;;;;;;;;;;;;;20.16;66.08;98510.03;2083152;28;20335;-45
2023/05/24 03:04:48;;;;;;;;;;;;;;;20.16;65.95;98504.63;2076202;28;19925;-52
2023/05/24 03:05:49;;;;;;;;;;;;;;;20.16;65.78;98502.75;2085445;28;19936;-47
2023/05/24 03:06:52;;;;;;;;;;;;;;;20.16;65.77;98507.31;2086200;28;20333;-51
2023/05/24 03:07:52;;;;;;;;;;;;;;;20.15;66.02;98498.44;2083315;28;19924;-48
2023/05/24 03:08:54;;;;;;;;;;;;;;;20.16;65.78;98501.94;2085045;28;19958;-52
2023/05/24 03:09:54;;;;;;;;;;;;;;;20.17;65.81;98503.59;2089294;28;20651;-49
2023/05/24 03:10:56;;;;;;;;;;;;;;;20.15;65.74;98501.13;2088810;28;19986;-48
2023/05/24 03:11:56;;;;;;;;;;;;;;;20.15;66.06;98503.81;2086745;28;19928;-48
2023/05/24 03:12:58;;;;;;;;;;;;;;;20.15;65.86;98503.81;2083480;28;19924;-50
2023/05/24 03:13:58;;;;;;;;;;;;;;;20.16;65.70;98508.16;2085719;28;19932;-47
2023/05/24 03:15:01;;;;;;;;;;;;;;;20.15;66.01;98506.50;2078402;28;21346;-47
2023/05/24 03:16:01;;;;;;;;;;;;;;;20.14;66.05;98506.72;2079933;28;20001;-48
2023/05/24 03:17:03;;;;;;;;;;;;;;;20.14;65.87;98512.91;2081581;28;20562;-47
2023/05/24 03:18:03;;;;;;;;;;;;;;;20.14;65.80;98504.84;2083669;28;19928;-50
2023/05/24 03:19:05;;;;;;;;;;;;;;;20.15;65.70;98511.06;2080871;28;19924;-48
2023/05/24 03:20:06;;;;;;;;;;;;;;;20.14;65.69;98510.22;2083847;28;19929;-48
2023/05/24 03:21:08;;;;;;;;;;;;;;;20.14;65.81;98512.09;2085364;28;19998;-49
2023/05/24 03:22:08;;;;;;;;;;;;;;;20.13;65.85;98505.06;2082260;28;19981;-50
2023/05/24 03:23:10;;;;;;;;;;;;;;;20.11;66.15;98513.34;2084633;28;19978;-48
2023/05/24 03:24:11;;;;;;;;;;;;;;;20.12;65.83;98515.03;2087792;28;19930;-48
2023/05/24 03:25:13;;;;;;;;;;;;;;;20.13;65.72;98511.28;2075643;28;19931;-50
2023/05/24 03:26:13;;;;;;;;;;;;;;;20.13;65.97;98513.97;2085018;28;19928;-47
2023/05/24 03:27:15;;;;;;;;;;;;;;;20.12;65.86;98516.91;2082436;28;20302;-49
2023/05/24 03:28:16;;;;;;;;;;;;;;;20.14;65.77;98512.91;2083343;28;19979;-47
2023/05/24 03:29:17;;;;;;;;;;;;;;;20.14;66.08;98520.16;2083501;28;19932;-49
2023/05/24 03:30:19;;;;;;;;;;;;;;;20.13;66.16;98513.16;2084835;28;20001;-50
2023/05/24 03:31:22;;;;;;;;;;;;;;;20.13;66.12;98516.66;2085903;28;20813;-47
2023/05/24 03:32:23;;;;;;;;;;;;;;;20.12;66.14;98514.19;2083741;28;19957;-49
2023/05/24 03:33:24;;;;;;;;;;;;;;;20.12;65.79;98512.31;2081095;28;19928;-51
2023/05/24 03:34:25;;;;;;;;;;;;;;;20.13;65.74;98515.84;2082979;28;21343;-46
2023/05/24 03:35:27;;;;;;;;;;;;;;;20.12;66.12;98515.03;2073089;28;20620;-48
2023/05/24 03:36:28;;;;;;;;;;;;;;;20.11;65.84;98515.22;2079195;28;20409;-47
2023/05/24 03:37:29;;;;;;;;;;;;;;;20.12;65.92;98520.41;2080536;28;19935;-48
2023/05/24 03:38:30;;;;;;;;;;;;;;;20.09;66.06;98516.28;2085778;28;20007;-47
2023/05/24 03:39:31;;;;;;;;;;;;;;;20.10;66.16;98517.09;2080525;28;19932;-47
2023/05/24 03:40:33;;;;;;;;;;;;;;;20.11;66.04;98520.59;2082846;28;20019;-49
2023/05/24 03:41:33;;;;;;;;;;;;;;;20.12;66.00;98519.59;2086297;28;19924;-49
2023/05/24 03:42:35;;;;;;;;;;;;;;;20.11;65.80;98521.44;2080722;28;19936;-47
2023/05/24 03:43:35;;;;;;;;;;;;;;;20.12;65.82;98523.09;2087266;28;19967;-47
2023/05/24 03:44:37;;;;;;;;;;;;;;;20.13;65.73;98523.91;2083913;28;19935;-48
2023/05/24 03:45:39;;;;;;;;;;;;;;;20.13;65.87;98524.75;2087651;28;19920;-50
2023/05/24 03:46:40;;;;;;;;;;;;;;;20.12;65.72;98523.09;2085061;28;20480;-47
2023/05/24 03:47:41;;;;;;;;;;;;;;;20.11;65.75;98524.13;2087328;28;19924;-50
2023/05/24 03:48:42;;;;;;;;;;;;;;;20.08;66.15;98525.38;2084416;28;20002;-47
2023/05/24 03:49:43;;;;;;;;;;;;;;;20.07;65.95;98526.44;2086935;28;20443;-48
2023/05/24 03:50:44;;;;;;;;;;;;;;;20.08;65.91;98527.25;2080718;28;19924;-48
2023/05/24 03:51:45;;;;;;;;;;;;;;;20.08;65.93;98528.06;2085585;28;19924;-48
2023/05/24 03:52:46;;;;;;;;;;;;;;;20.08;65.94;98527.25;2083715;28;19928;-48
2023/05/24 03:53:47;;;;;;;;;;;;;;;20.08;65.82;98527.25;2083532;28;19963;-50
2023/05/24 03:54:49;;;;;;;;;;;;;;;20.08;65.97;98529.94;2080128;28;21244;-48
2023/05/24 03:55:50;;;;;;;;;;;;;;;20.09;66.12;98534.31;2084512;28;20022;-48
2023/05/24 03:56:52;;;;;;;;;;;;;;;20.09;66.08;98534.31;2085039;28;20425;-48
2023/05/24 03:57:53;;;;;;;;;;;;;;;20.08;66.10;98529.94;2084601;28;19921;-48
2023/05/24 03:58:56;;;;;;;;;;;;;;;20.08;66.05;98529.94;2085274;28;19931;-51
2023/05/24 03:59:57;;;;;;;;;;;;;;;20.07;65.85;98529.13;2083812;28;19927;-50
2023/05/24 04:01:00;;;;;;;;;;;;;;;20.08;65.83;98533.44;2079332;28;20493;-48
2023/05/24 04:02:01;;;;;;;;;;;;;;;20.08;65.94;98529.94;2081368;28;20998;-50
2023/05/24 04:03:05;;;;;;;;;;;;;;;20.08;65.77;98541.53;2083108;28;19924;-50
2023/05/24 04:04:05;;;;;;;;;;;;;;;20.07;65.86;98539.88;2083131;28;19935;-46
2023/05/24 04:05:09;;;;;;;;;;;;;;;20.08;65.78;98538.00;2082450;28;20444;-49
2023/05/24 04:06:09;;;;;;;;;;;;;;;20.08;65.70;98538.00;2082603;28;20216;-51
2023/05/24 04:07:12;;;;;;;;;;;;;;;20.07;65.95;98539.06;2075861;28;22082;-50
2023/05/24 04:08:13;;;;;;;;;;;;;;;20.06;65.84;98543.63;2082645;28;19993;-48
2023/05/24 04:09:15;;;;;;;;;;;;;;;20.07;65.70;98536.38;2081870;28;19928;-48
2023/05/24 04:10:15;;;;;;;;;;;;;;;20.07;66.05;98547.97;2080149;28;19966;-48
2023/05/24 04:11:17;;;;;;;;;;;;;;;20.07;65.84;98544.47;2082095;28;20222;-47
2023/05/24 04:12:17;;;;;;;;;;;;;;;20.07;65.85;98539.06;2082084;28;19924;-48
2023/05/24 04:13:19;;;;;;;;;;;;;;;20.06;65.88;98542.81;2086655;28;19969;-49
2023/05/24 04:14:19;;;;;;;;;;;;;;;20.06;66.02;98549.03;2087386;28;19949;-49
2023/05/24 04:15:21;;;;;;;;;;;;;;;20.07;65.92;98536.38;2084874;28;19924;-48
2023/05/24 04:16:24;;;;;;;;;;;;;;;20.07;65.87;98544.47;2086178;28;21792;-50
2023/05/24 04:17:26;;;;;;;;;;;;;;;20.08;65.86;98538.00;2083125;28;19925;-48
2023/05/24 04:18:26;;;;;;;;;;;;;;;20.06;66.15;98546.31;2085866;28;19924;-47
2023/05/24 04:19:28;;;;;;;;;;;;;;;20.07;66.05;98536.38;2085780;28;20294;-47
2023/05/24 04:20:28;;;;;;;;;;;;;;;20.05;65.98;98544.66;2081793;28;20071;-49
2023/05/24 04:21:31;;;;;;;;;;;;;;;20.07;65.86;98539.06;2081577;28;19924;-49
2023/05/24 04:22:31;;;;;;;;;;;;;;;20.06;65.72;98542.81;2084104;28;20271;-51
2023/05/24 04:23:32;;;;;;;;;;;;;;;20.06;65.96;98542.81;2081547;28;20023;-50
2023/05/24 04:24:33;;;;;;;;;;;;;;;20.05;66.00;98543.84;2083920;28;19928;-48
2023/05/24 04:25:34;;;;;;;;;;;;;;;20.05;66.02;98536.56;2086033;28;20507;-51
2023/05/24 04:26:36;;;;;;;;;;;;;;;20.05;65.94;98536.56;2084051;28;19990;-48
2023/05/24 04:27:37;;;;;;;;;;;;;;;20.04;65.73;98539.50;2081648;28;20548;-48
2023/05/24 04:28:38;;;;;;;;;;;;;;;20.04;66.08;98548.41;2079918;28;19924;-48
2023/05/24 04:29:40;;;;;;;;;;;;;;;20.05;65.87;98546.53;2082557;28;19928;-49
2023/05/24 04:30:41;;;;;;;;;;;;;;;20.04;66.00;98542.19;2082676;28;19924;-49
2023/05/24 04:31:44;;;;;;;;;;;;;;;20.04;65.86;98548.41;2081703;28;20465;-47
2023/05/24 04:32:44;;;;;;;;;;;;;;;20.04;65.84;98539.50;2079133;28;20549;-47
2023/05/24 04:33:46;;;;;;;;;;;;;;;20.04;65.83;98545.72;2086065;28;19968;-49
2023/05/24 04:34:47;;;;;;;;;;;;;;;20.05;65.92;98554.59;2083673;28;19920;-46
2023/05/24 04:35:48;;;;;;;;;;;;;;;20.05;66.00;98546.53;2080067;28;19966;-50
2023/05/24 04:36:51;;;;;;;;;;;;;;;20.04;65.91;98551.09;2084008;28;19928;-47
2023/05/24 04:37:52;;;;;;;;;;;;;;;20.04;66.13;98551.09;2084921;28;19921;-46
2023/05/24 04:38:54;;;;;;;;;;;;;;;20.04;66.07;98550.28;2076574;28;19925;-46
2023/05/24 04:39:56;;;;;;;;;;;;;;;20.03;65.95;98549.44;2085142;28;22126;-49
2023/05/24 04:40:56;;;;;;;;;;;;;;;20.04;65.89;98547.56;2081758;28;19928;-46
2023/05/24 04:41:59;;;;;;;;;;;;;;;20.03;66.17;98549.44;2085156;28;19994;-47
2023/05/24 04:43:00;;;;;;;;;;;;;;;20.05;65.83;98546.53;2087479;28;19927;-48
2023/05/24 04:44:01;;;;;;;;;;;;;;;20.05;66.13;98549.22;2080320;28;20318;-47
2023/05/24 04:45:01;;;;;;;;;;;;;;;20.05;66.06;98546.53;2083720;28;19982;-50
2023/05/24 04:46:03;;;;;;;;;;;;;;;20.04;66.09;98544.88;2079532;28;21327;-47
2023/05/24 04:47:05;;;;;;;;;;;;;;;20.04;65.77;98551.09;2081471;28;19924;-50
2023/05/24 04:48:07;;;;;;;;;;;;;;;20.03;65.90;98541.38;2079634;28;19958;-48
2023/05/24 04:49:07;;;;;;;;;;;;;;;20.03;65.78;98549.44;2082843;28;19976;-50
2023/05/24 04:50:09;;;;;;;;;;;;;;;20.03;65.86;98541.38;2083510;28;19928;-48
2023/05/24 04:51:10;;;;;;;;;;;;;;;20.01;66.12;98551.53;2083919;28;19933;-49
2023/05/24 04:52:11;;;;;;;;;;;;;;;20.01;66.19;98551.53;2083804;28;21520;-50
2023/05/24 04:53:13;;;;;;;;;;;;;;;20.02;65.86;98550.47;2085977;28;19989;-47
2023/05/24 04:54:16;;;;;;;;;;;;;;;20.02;65.77;98552.34;2085181;28;19928;-48
2023/05/24 04:55:17;;;;;;;;;;;;;;;20.03;65.82;98553.97;2085982;28;19924;-50
2023/05/24 04:56:18;;;;;;;;;;;;;;;20.03;65.90;98553.97;2084290;28;20410;-48
2023/05/24 04:57:19;;;;;;;;;;;;;;;20.02;65.84;98555.03;2085492;28;20358;-48
2023/05/24 04:58:20;;;;;;;;;;;;;;;20.02;65.83;98555.03;2085343;28;20014;-49
2023/05/24 04:59:21;;;;;;;;;;;;;;;20.02;65.94;98546.97;2083659;28;19928;-50
2023/05/24 05:00:22;;;;;;;;;;;;;;;20.01;65.93;98550.72;2076265;28;19924;-48
2023/05/24 05:01:23;;;;;;;;;;;;;;;20.02;66.09;98550.47;2076938;28;19937;-47
2023/05/24 05:02:26;;;;;;;;;;;;;;;20.03;65.96;98559.38;2079812;28;19924;-49
2023/05/24 05:03:26;;;;;;;;;;;;;;;20.02;65.85;98553.16;2079979;28;20020;-50
2023/05/24 05:04:28;;;;;;;;;;;;;;;20.01;65.95;98550.72;2073701;28;19932;-50
2023/05/24 05:05:29;;;;;;;;;;;;;;;20.01;65.86;98548.00;2078178;28;19970;-49
2023/05/24 05:06:30;;;;;;;;;;;;;;;20.02;65.88;98557.72;2083935;28;19935;-54
2023/05/24 05:07:32;;;;;;;;;;;;;;;20.01;65.92;98561.47;2083807;28;19934;-48
2023/05/24 05:08:32;;;;;;;;;;;;;;;20.01;65.91;98556.09;2083022;28;19978;-49
2023/05/24 05:09:34;;;;;;;;;;;;;;;20.01;65.78;98561.47;2080197;28;20125;-48
2023/05/24 05:10:34;;;;;;;;;;;;;;;20.00;66.22;98557.09;2073940;28;20557;-48
2023/05/24 05:11:36;;;;;;;;;;;;;;;20.00;66.20;98557.97;2082416;28;19924;-48
2023/05/24 05:12:37;;;;;;;;;;;;;;;20.00;66.10;98555.28;2086297;28;20282;-47
2023/05/24 05:13:39;;;;;;;;;;;;;;;20.00;66.09;98560.66;2076436;28;19931;-49
2023/05/24 05:14:39;;;;;;;;;;;;;;;20.01;65.94;98556.09;2079263;28;20007;-48
2023/05/24 05:15:40;;;;;;;;;;;;;;;20.00;66.18;98560.66;2084404;28;20026;-47
2023/05/24 05:16:41;;;;;;;;;;;;;;;20.00;65.84;98560.66;2081704;28;19982;-50
2023/05/24 05:17:44;;;;;;;;;;;;;;;20.00;65.92;98559.81;2081911;28;19932;-51
2023/05/24 05:18:44;;;;;;;;;;;;;;;20.01;65.78;98556.91;2081419;28;19925;-50
2023/05/24 05:19:46;;;;;;;;;;;;;;;20.01;65.91;98561.47;2078463;28;19928;-49
2023/05/24 05:20:46;;;;;;;;;;;;;;;20.00;65.97;98555.28;2074965;28;19920;-48
2023/05/24 05:21:48;;;;;;;;;;;;;;;20.00;66.24;98557.97;2083402;28;19924;-48
2023/05/24 05:22:48;;;;;;;;;;;;;;;20.01;65.94;98556.09;2085637;28;20363;-49